createdAt,value
2022-11-17T00:00:24.925Z,6.43
2022-11-17T00:02:52.947Z,6.40
2022-11-17T00:05:21.259Z,6.44
2022-11-17T00:07:50.054Z,6.46
2022-11-17T00:10:19.208Z,6.47
2022-11-17T00:13:05.958Z,6.50
2022-11-17T00:15:34.144Z,6.46
2022-11-17T00:18:20.899Z,6.50
2022-11-17T00:21:06.020Z,6.49
2022-11-17T00:23:48.091Z,6.49
2022-11-17T00:26:16.941Z,6.56
2022-11-17T00:28:46.347Z,6.50
2022-11-17T00:31:32.891Z,6.55
2022-11-17T00:34:07.687Z,6.55
2022-11-17T00:36:39.091Z,6.54
2022-11-17T00:39:07.704Z,6.57
2022-11-17T00:41:36.007Z,6.56
2022-11-17T00:44:06.171Z,6.60
2022-11-17T00:46:34.596Z,6.65
2022-11-17T00:49:02.650Z,6.68
2022-11-17T00:51:30.610Z,6.68
2022-11-17T00:53:58.871Z,6.73
2022-11-17T00:56:27.051Z,6.77
2022-11-17T00:58:55.262Z,6.83
2022-11-17T01:01:25.025Z,6.87
2022-11-17T01:04:02.968Z,6.88
2022-11-17T01:06:33.628Z,6.91
2022-11-17T01:09:01.738Z,6.93
2022-11-17T01:11:30.178Z,6.90
2022-11-17T01:14:00.262Z,6.94
2022-11-17T01:16:30.959Z,6.98
2022-11-17T01:19:01.220Z,6.92
2022-11-17T01:21:31.465Z,6.92
2022-11-17T01:24:01.480Z,6.96
2022-11-17T01:26:31.759Z,6.96
2022-11-17T01:29:00.616Z,7.01
2022-11-17T01:31:32.021Z,7.01
2022-11-17T01:34:00.315Z,7.03
2022-11-17T01:36:30.070Z,7.09
2022-11-17T01:38:58.343Z,7.14
2022-11-17T01:41:27.964Z,7.17
2022-11-17T01:43:57.717Z,7.19
2022-11-17T01:46:33.460Z,7.23
2022-11-17T01:49:06.693Z,7.27
2022-11-17T01:51:39.487Z,7.28
2022-11-17T01:54:08.753Z,7.27
2022-11-17T01:56:40.478Z,7.28
2022-11-17T01:59:11.359Z,7.30
2022-11-17T02:01:55.725Z,7.32
2022-11-17T02:04:27.058Z,7.32
2022-11-17T02:07:01.827Z,7.32
2022-11-17T02:09:30.516Z,7.35
2022-11-17T02:14:57.159Z,7.33
2022-11-17T02:17:34.834Z,7.30
2022-11-17T02:20:09.017Z,7.31
2022-11-17T02:23:25.486Z,7.34
2022-11-17T02:26:09.019Z,7.31
2022-11-17T02:28:40.554Z,7.29
2022-11-17T02:31:20.738Z,7.30
2022-11-17T02:33:56.872Z,7.26
2022-11-17T02:36:33.391Z,7.31
2022-11-17T02:39:11.163Z,7.30
2022-11-17T02:41:47.541Z,7.31
2022-11-17T02:44:21.745Z,7.31
2022-11-17T02:46:55.734Z,7.30
2022-11-17T02:49:27.052Z,7.31
2022-11-17T02:51:57.916Z,7.33
2022-11-17T02:54:29.303Z,7.26
2022-11-17T02:56:57.266Z,7.29
2022-11-17T02:59:31.318Z,7.29
2022-11-17T03:02:20.575Z,7.31
2022-11-17T03:05:05.404Z,7.29
2022-11-17T03:07:48.201Z,7.29
2022-11-17T03:10:20.752Z,7.27
2022-11-17T03:12:56.250Z,7.31
2022-11-17T03:15:33.687Z,7.26
2022-11-17T03:18:10.699Z,7.28
2022-11-17T03:20:48.759Z,7.28
2022-11-17T03:23:20.824Z,7.32
2022-11-17T03:25:54.894Z,7.29
2022-11-17T03:28:28.951Z,7.29
2022-11-17T03:31:00.485Z,7.28
2022-11-17T03:33:30.166Z,7.27
2022-11-17T03:36:04.837Z,7.28
2022-11-17T03:38:36.209Z,7.30
2022-11-17T03:41:07.748Z,7.30
2022-11-17T03:43:37.773Z,7.28
2022-11-17T03:46:11.593Z,7.28
2022-11-17T03:48:45.834Z,7.28
2022-11-17T03:51:17.622Z,7.30
2022-11-17T03:53:47.034Z,7.35
2022-11-17T03:56:26.377Z,7.44
2022-11-17T03:59:00.315Z,7.48
2022-11-17T04:01:32.290Z,7.48
2022-11-17T04:04:00.992Z,7.52
2022-11-17T04:06:29.037Z,7.54
2022-11-17T04:08:57.059Z,7.58
2022-11-17T04:11:42.431Z,7.60
2022-11-17T04:14:28.228Z,7.63
2022-11-17T04:16:57.606Z,7.68
2022-11-17T04:19:25.681Z,7.72
2022-11-17T04:21:53.710Z,7.75
2022-11-17T04:24:21.721Z,7.73
2022-11-17T04:27:07.307Z,7.77
2022-11-17T04:29:35.320Z,7.79
2022-11-17T04:32:05.091Z,7.80
2022-11-17T04:34:33.079Z,7.83
2022-11-17T04:37:06.954Z,7.86
2022-11-17T04:39:38.822Z,7.88
2022-11-17T04:42:05.902Z,7.87
2022-11-17T04:44:34.005Z,7.92
2022-11-17T04:47:03.678Z,7.91
2022-11-17T04:49:33.814Z,7.92
2022-11-17T04:52:02.698Z,7.92
2022-11-17T04:54:30.770Z,7.94
2022-11-17T04:56:58.929Z,7.94
2022-11-17T04:59:26.990Z,7.97
2022-11-17T05:01:55.258Z,7.96
2022-11-17T05:04:37.200Z,7.96
2022-11-17T05:07:07.022Z,7.94
2022-11-17T05:09:35.148Z,7.96
2022-11-17T05:12:20.390Z,7.93
2022-11-17T05:14:50.356Z,7.96
2022-11-17T05:17:17.936Z,7.95
2022-11-17T05:19:47.267Z,7.96
2022-11-17T05:22:35.751Z,8.00
2022-11-17T05:25:04.851Z,8.00
2022-11-17T05:27:33.745Z,8.02
2022-11-17T05:30:01.960Z,8.03
2022-11-17T05:32:30.051Z,8.02
2022-11-17T05:34:58.056Z,8.03
2022-11-17T05:37:27.475Z,8.06
2022-11-17T05:39:55.498Z,8.03
2022-11-17T05:42:23.563Z,8.04
2022-11-17T05:44:51.553Z,8.06
2022-11-17T05:47:19.626Z,8.04
2022-11-17T05:49:47.532Z,8.03
2022-11-17T05:52:15.575Z,8.01
2022-11-17T05:54:44.916Z,7.98
2022-11-17T05:57:16.308Z,7.99
2022-11-17T05:59:47.666Z,8.02
2022-11-17T06:02:20.048Z,8.07
2022-11-17T06:04:50.494Z,8.05
2022-11-17T06:07:20.695Z,8.08
2022-11-17T06:09:52.194Z,8.11
2022-11-17T06:12:20.308Z,8.10
2022-11-17T06:14:48.326Z,8.11
2022-11-17T06:17:22.876Z,8.12
2022-11-17T06:19:56.455Z,8.13
2022-11-17T06:22:26.478Z,8.16
2022-11-17T06:24:56.825Z,8.15
2022-11-17T06:27:25.845Z,8.13
2022-11-17T06:29:54.998Z,8.14
2022-11-17T06:32:22.954Z,8.13
2022-11-17T06:34:55.696Z,8.12
2022-11-17T06:37:24.881Z,8.12
2022-11-17T06:39:52.939Z,8.08
2022-11-17T06:42:42.917Z,8.08
2022-11-17T06:45:12.268Z,8.08
2022-11-17T06:47:40.306Z,8.10
2022-11-17T06:50:08.888Z,8.12
2022-11-17T06:52:36.864Z,8.15
2022-11-17T06:55:05.067Z,8.13
2022-11-17T06:57:34.387Z,8.16
2022-11-17T07:00:02.318Z,8.15
2022-11-17T07:02:32.464Z,8.15
2022-11-17T07:05:00.531Z,8.20
2022-11-17T07:07:28.711Z,8.17
2022-11-17T07:09:56.743Z,8.15
2022-11-17T07:12:24.757Z,8.16
2022-11-17T07:14:54.209Z,8.18
2022-11-17T07:17:22.202Z,8.24
2022-11-17T07:19:50.199Z,8.28
2022-11-17T07:22:18.178Z,8.31
2022-11-17T07:24:46.182Z,8.37
2022-11-17T07:27:14.619Z,8.39
2022-11-17T07:29:42.675Z,8.42
2022-11-17T07:32:14.941Z,8.45
2022-11-17T07:34:43.032Z,8.48
2022-11-17T07:37:11.036Z,8.48
2022-11-17T07:39:38.943Z,8.51
2022-11-17T07:42:07.315Z,8.55
2022-11-17T07:44:35.597Z,8.58
2022-11-17T07:47:03.595Z,8.61
2022-11-17T07:49:32.977Z,8.68
2022-11-17T07:52:01.923Z,8.71
2022-11-17T07:54:29.870Z,8.76
2022-11-17T07:56:57.835Z,8.79
2022-11-17T07:59:25.848Z,8.82
2022-11-17T08:01:53.838Z,8.84
2022-11-17T08:04:21.864Z,8.88
2022-11-17T08:06:51.254Z,8.90
2022-11-17T08:09:19.275Z,8.93
2022-11-17T08:11:47.239Z,8.95
2022-11-17T08:14:15.211Z,9.00
2022-11-17T08:16:43.209Z,9.03
2022-11-17T08:19:12.038Z,9.06
2022-11-17T08:21:41.148Z,9.09
2022-11-17T08:24:12.833Z,9.12
2022-11-17T08:26:41.152Z,9.16
2022-11-17T08:29:09.655Z,9.18
2022-11-17T08:31:37.665Z,9.22
2022-11-17T08:34:05.778Z,9.24
2022-11-17T08:36:33.832Z,9.24
2022-11-17T08:39:01.913Z,9.25
2022-11-17T08:41:32.137Z,9.25
2022-11-17T08:44:00.500Z,9.28
2022-11-17T08:46:28.505Z,9.31
2022-11-17T08:48:57.205Z,9.30
2022-11-17T08:51:27.284Z,9.34
2022-11-17T08:53:55.361Z,9.35
2022-11-17T08:56:23.339Z,9.37
2022-11-17T08:58:52.794Z,9.39
2022-11-17T09:01:20.819Z,9.43
2022-11-17T09:03:49.239Z,9.46
2022-11-17T09:06:18.308Z,9.50
2022-11-17T09:08:47.445Z,9.55
2022-11-17T09:11:16.755Z,9.57
2022-11-17T09:13:45.909Z,9.62
2022-11-17T09:16:16.049Z,9.64
2022-11-17T09:18:44.471Z,9.68
2022-11-17T09:21:15.279Z,9.73
2022-11-17T09:23:44.008Z,9.79
2022-11-17T09:26:14.549Z,9.82
2022-11-17T09:28:42.994Z,9.85
2022-11-17T09:31:12.962Z,9.91
2022-11-17T09:33:42.802Z,9.96
2022-11-17T09:36:11.523Z,9.99
2022-11-17T09:38:40.242Z,10.05
2022-11-17T09:41:22.280Z,10.12
2022-11-17T09:43:55.437Z,10.13
2022-11-17T09:46:28.799Z,10.17
2022-11-17T09:49:07.890Z,10.20
2022-11-17T09:51:39.373Z,10.21
2022-11-17T09:54:14.495Z,10.22
2022-11-17T09:56:42.582Z,10.23
2022-11-17T09:59:15.318Z,10.22
2022-11-17T10:01:43.466Z,10.23
2022-11-17T10:04:16.811Z,10.25
2022-11-17T10:06:47.905Z,10.28
2022-11-17T10:09:25.655Z,10.32
2022-11-17T10:11:55.795Z,10.34
2022-11-17T10:14:24.072Z,10.39
2022-11-17T10:16:54.374Z,10.47
2022-11-17T10:19:26.148Z,10.48
2022-11-17T10:21:57.947Z,10.44
2022-11-17T10:24:37.473Z,10.44
2022-11-17T10:27:07.569Z,10.48
2022-11-17T10:29:35.496Z,10.47
2022-11-17T10:32:09.814Z,10.50
2022-11-17T10:34:41.696Z,10.50
2022-11-17T10:37:26.505Z,10.57
2022-11-17T10:40:19.245Z,10.58
2022-11-17T10:43:03.623Z,10.60
2022-11-17T10:45:32.488Z,10.61
2022-11-17T10:48:17.874Z,10.65
2022-11-17T10:50:55.192Z,10.63
2022-11-17T10:53:41.264Z,10.56
2022-11-17T10:56:15.748Z,10.54
2022-11-17T10:59:00.698Z,10.53
2022-11-17T11:01:35.166Z,10.57
2022-11-17T11:04:04.484Z,10.54
2022-11-17T11:06:35.865Z,10.53
2022-11-17T11:09:08.216Z,10.53
2022-11-17T11:11:44.538Z,10.57
2022-11-17T11:14:20.874Z,10.60
2022-11-17T11:16:51.420Z,10.52
2022-11-17T11:19:21.134Z,10.50
2022-11-17T11:22:21.427Z,10.53
2022-11-17T11:24:54.592Z,10.60
2022-11-17T11:27:38.589Z,10.58
2022-11-17T11:30:11.337Z,10.55
2022-11-17T11:32:52.001Z,10.53
2022-11-17T11:35:34.860Z,10.48
2022-11-17T11:38:16.916Z,10.45
2022-11-17T11:40:55.875Z,10.48
2022-11-17T11:43:35.241Z,10.41
2022-11-17T11:46:11.528Z,10.38
2022-11-17T11:48:41.939Z,10.37
2022-11-17T11:51:16.341Z,10.36
2022-11-17T11:53:53.539Z,10.41
2022-11-17T11:56:27.009Z,10.41
2022-11-17T11:59:00.052Z,10.43
2022-11-17T12:01:30.016Z,10.45
2022-11-17T12:04:13.943Z,10.46
2022-11-17T12:06:53.975Z,10.48
2022-11-17T12:09:48.632Z,10.52
2022-11-17T12:12:19.465Z,10.48
2022-11-17T12:15:28.861Z,10.50
2022-11-17T12:18:02.068Z,10.50
2022-11-17T12:20:58.899Z,10.55
2022-11-17T12:23:58.878Z,10.58
2022-11-17T12:26:30.150Z,10.63
2022-11-17T12:29:29.150Z,10.66
2022-11-17T12:31:58.094Z,10.70
2022-11-17T12:34:30.592Z,10.70
2022-11-17T12:37:27.424Z,10.72
2022-11-17T12:40:00.604Z,10.72
2022-11-17T12:42:31.587Z,10.77
2022-11-17T12:45:01.788Z,10.77
2022-11-17T12:47:32.118Z,10.80
2022-11-17T12:50:30.024Z,10.83
2022-11-17T12:53:17.165Z,10.82
2022-11-17T12:56:10.038Z,10.82
2022-11-17T12:58:50.180Z,10.81
2022-11-17T13:01:26.774Z,10.82
2022-11-17T13:04:00.397Z,10.86
2022-11-17T13:06:35.346Z,10.88
2022-11-17T13:09:07.297Z,10.91
2022-11-17T13:11:36.113Z,10.91
2022-11-17T13:14:14.526Z,10.88
2022-11-17T13:16:48.027Z,10.89
2022-11-17T13:19:41.614Z,10.87
2022-11-17T13:22:16.505Z,10.87
2022-11-17T13:28:45.472Z,10.84
2022-11-17T13:31:19.316Z,10.84
2022-11-17T13:33:56.892Z,10.83
2022-11-17T13:36:27.318Z,10.81
2022-11-17T13:38:57.365Z,10.77
2022-11-17T13:41:26.444Z,10.73
2022-11-17T13:43:56.099Z,10.72
2022-11-17T13:46:25.496Z,10.70
2022-11-17T13:48:53.580Z,10.67
2022-11-17T13:51:35.011Z,10.68
2022-11-17T13:54:07.374Z,10.67
2022-11-17T13:56:37.961Z,10.67
2022-11-17T13:59:18.546Z,10.66
2022-11-17T14:01:48.031Z,10.62
2022-11-17T14:04:22.074Z,10.58
2022-11-17T14:06:59.804Z,10.57
2022-11-17T14:09:29.645Z,10.58
2022-11-17T14:11:59.037Z,10.52
2022-11-17T14:14:35.461Z,10.52
2022-11-17T14:17:14.161Z,10.52
2022-11-17T14:19:42.187Z,10.50
2022-11-17T14:22:30.821Z,10.50
2022-11-17T14:24:59.805Z,10.47
2022-11-17T14:27:39.086Z,10.43
2022-11-17T14:30:08.112Z,10.41
2022-11-17T14:32:37.450Z,10.40
2022-11-17T14:35:05.899Z,10.41
2022-11-17T14:37:34.120Z,10.38
2022-11-17T14:40:05.222Z,10.35
2022-11-17T14:42:36.072Z,10.34
2022-11-17T14:45:05.185Z,10.32
2022-11-17T14:47:33.148Z,10.30
2022-11-17T14:50:03.303Z,10.29
2022-11-17T14:52:31.279Z,10.29
2022-11-17T14:55:00.716Z,10.28
2022-11-17T14:57:28.690Z,10.28
2022-11-17T14:59:56.918Z,10.25
2022-11-17T15:02:24.972Z,10.26
2022-11-17T15:04:53.665Z,10.26
2022-11-17T15:07:23.493Z,10.27
2022-11-17T15:09:51.540Z,10.26
2022-11-17T15:12:19.678Z,10.28
2022-11-17T15:14:48.428Z,10.24
2022-11-17T15:17:16.879Z,10.24
2022-11-17T15:19:45.294Z,10.24
2022-11-17T15:22:13.272Z,10.24
2022-11-17T15:24:42.633Z,10.20
2022-11-17T15:27:11.048Z,10.22
2022-11-17T15:29:39.220Z,10.16
2022-11-17T15:32:07.737Z,10.17
2022-11-17T15:34:35.901Z,10.13
2022-11-17T15:37:03.908Z,10.12
2022-11-17T15:39:31.978Z,10.11
2022-11-17T15:42:01.352Z,10.11
2022-11-17T15:44:30.196Z,10.13
2022-11-17T15:46:58.205Z,10.11
2022-11-17T15:49:26.265Z,10.12
2022-11-17T15:51:54.492Z,10.12
2022-11-17T15:54:23.433Z,10.09
2022-11-17T15:56:52.208Z,10.10
2022-11-17T15:59:21.603Z,10.08
2022-11-17T16:01:50.211Z,10.11
2022-11-17T16:04:18.239Z,10.07
2022-11-17T16:06:47.387Z,9.99
2022-11-17T16:09:16.140Z,10.03
2022-11-17T16:11:44.771Z,9.97
2022-11-17T16:14:14.789Z,9.96
2022-11-17T16:16:46.762Z,9.95
2022-11-17T16:19:15.115Z,9.87
2022-11-17T16:21:44.587Z,9.82
2022-11-17T16:24:13.103Z,9.82
2022-11-17T16:26:41.240Z,9.83
2022-11-17T16:29:09.318Z,9.82
2022-11-17T16:31:39.779Z,9.78
2022-11-17T16:34:12.919Z,9.79
2022-11-17T16:36:42.273Z,9.79
2022-11-17T16:39:12.820Z,9.82
2022-11-17T16:41:42.778Z,9.77
2022-11-17T16:44:12.973Z,9.74
2022-11-17T16:46:43.410Z,9.69
2022-11-17T16:49:16.461Z,9.70
2022-11-17T16:51:48.809Z,9.68
2022-11-17T16:54:16.906Z,9.63
2022-11-17T16:56:45.053Z,9.63
2022-11-17T16:59:13.348Z,9.65
2022-11-17T17:01:41.866Z,9.62
2022-11-17T17:04:12.096Z,9.62
2022-11-17T17:06:43.675Z,9.63
2022-11-17T17:09:14.775Z,9.65
2022-11-17T17:11:43.396Z,9.63
2022-11-17T17:14:14.570Z,9.57
2022-11-17T17:16:43.642Z,9.58
2022-11-17T17:19:13.360Z,9.55
2022-11-17T17:21:44.381Z,9.58
2022-11-17T17:24:13.628Z,9.60
2022-11-17T17:26:42.354Z,9.62
2022-11-17T17:29:12.076Z,9.65
2022-11-17T17:31:41.910Z,9.66
2022-11-17T17:34:12.816Z,9.69
2022-11-17T17:36:42.138Z,9.69
2022-11-17T17:39:14.636Z,9.68
2022-11-17T17:41:44.187Z,9.71
2022-11-17T17:44:16.189Z,9.74
2022-11-17T17:46:44.468Z,9.73
2022-11-17T17:49:12.876Z,9.71
2022-11-17T17:51:44.300Z,9.76
2022-11-17T17:54:16.992Z,9.75
2022-11-17T17:56:45.339Z,9.78
2022-11-17T17:59:14.489Z,9.79
2022-11-17T18:01:45.997Z,9.78
2022-11-17T18:04:16.174Z,9.78
2022-11-17T18:06:48.245Z,9.77
2022-11-17T18:09:19.428Z,9.77
2022-11-17T18:11:49.488Z,9.81
2022-11-17T18:14:22.509Z,9.77
2022-11-17T18:16:51.150Z,9.79
2022-11-17T18:19:19.844Z,9.82
2022-11-17T18:21:49.294Z,9.82
2022-11-17T18:24:17.346Z,9.80
2022-11-17T18:26:45.313Z,9.77
2022-11-17T18:29:16.248Z,9.74
2022-11-17T18:31:46.662Z,9.73
2022-11-17T18:34:16.578Z,9.67
2022-11-17T18:36:44.572Z,9.65
2022-11-17T18:39:15.268Z,9.70
2022-11-17T18:41:44.128Z,9.73
2022-11-17T18:44:13.402Z,9.78
2022-11-17T18:46:41.457Z,9.80
2022-11-17T18:49:09.905Z,9.82
2022-11-17T18:51:38.350Z,9.82
2022-11-17T18:54:07.618Z,9.82
2022-11-17T18:56:38.389Z,9.81
2022-11-17T18:59:11.563Z,9.84
2022-11-17T19:01:40.850Z,9.86
2022-11-17T19:04:09.079Z,9.87
2022-11-17T19:06:37.526Z,9.89
2022-11-17T19:09:06.078Z,9.89
2022-11-17T19:11:35.065Z,9.89
2022-11-17T19:14:05.870Z,9.90
2022-11-17T19:16:41.005Z,9.91
2022-11-17T19:19:13.156Z,9.91
2022-11-17T19:21:41.718Z,9.87
2022-11-17T19:24:10.161Z,9.84
2022-11-17T19:26:38.210Z,9.76
2022-11-17T19:29:15.584Z,9.66
2022-11-17T19:31:45.238Z,9.60
2022-11-17T19:34:13.496Z,9.56
2022-11-17T19:36:41.491Z,9.44
2022-11-17T19:39:09.516Z,9.45
2022-11-17T19:41:38.587Z,9.25
2022-11-17T19:44:09.921Z,9.21
2022-11-17T19:46:38.926Z,9.04
2022-11-17T19:49:07.644Z,8.96
2022-11-17T19:51:37.499Z,8.84
2022-11-17T19:54:07.308Z,8.94
2022-11-17T19:56:35.678Z,8.89
2022-11-17T19:59:04.041Z,8.87
2022-11-17T20:01:34.442Z,8.77
2022-11-17T20:04:03.494Z,8.70
2022-11-17T20:06:36.980Z,8.72
2022-11-17T20:09:08.121Z,8.68
2022-11-17T20:11:36.928Z,8.66
2022-11-17T20:14:05.339Z,8.63
2022-11-17T20:16:34.799Z,8.60
2022-11-17T20:19:03.285Z,8.55
2022-11-17T20:21:31.876Z,8.55
2022-11-17T20:24:01.193Z,8.48
2022-11-17T20:26:31.446Z,8.48
2022-11-17T20:29:00.297Z,8.45
2022-11-17T20:31:29.975Z,8.41
2022-11-17T20:34:01.424Z,8.41
2022-11-17T20:36:30.887Z,8.39
2022-11-17T20:39:01.317Z,8.35
2022-11-17T20:41:30.288Z,8.37
2022-11-17T20:44:00.429Z,8.35
2022-11-17T20:46:28.856Z,8.35
2022-11-17T20:48:57.029Z,8.31
2022-11-17T20:51:27.056Z,8.29
2022-11-17T20:53:55.229Z,8.24
2022-11-17T20:56:23.651Z,8.26
2022-11-17T20:58:51.742Z,8.26
2022-11-17T21:01:23.042Z,8.24
2022-11-17T21:03:51.267Z,8.24
2022-11-17T21:06:22.955Z,8.23
2022-11-17T21:08:52.694Z,8.24
2022-11-17T21:11:40.933Z,8.23
2022-11-17T21:14:10.223Z,8.20
2022-11-17T21:16:39.664Z,8.22
2022-11-17T21:19:08.072Z,8.22
2022-11-17T21:21:36.535Z,8.18
2022-11-17T21:24:06.570Z,8.17
2022-11-17T21:26:34.944Z,8.18
2022-11-17T21:29:06.401Z,8.19
2022-11-17T21:31:35.284Z,8.18
2022-11-17T21:34:05.279Z,8.07
2022-11-17T21:36:34.517Z,8.07
2022-11-17T21:39:02.685Z,8.05
2022-11-17T21:41:35.385Z,8.05
2022-11-17T21:44:05.012Z,7.99
2022-11-17T21:46:34.724Z,8.00
2022-11-17T21:49:03.117Z,7.99
2022-11-17T21:51:33.376Z,7.94
2022-11-17T21:54:03.475Z,7.90
2022-11-17T21:56:33.223Z,7.89
2022-11-17T21:59:02.785Z,7.88
2022-11-17T22:01:31.681Z,7.89
2022-11-17T22:04:00.099Z,7.83
2022-11-17T22:06:28.754Z,7.81
2022-11-17T22:08:57.883Z,7.90
2022-11-17T22:11:37.467Z,7.90
2022-11-17T22:14:09.881Z,7.86
2022-11-17T22:16:39.125Z,7.84
2022-11-17T22:19:08.974Z,7.83
2022-11-17T22:21:37.895Z,7.84
2022-11-17T22:24:07.208Z,7.78
2022-11-17T22:26:38.147Z,7.78
2022-11-17T22:29:09.665Z,7.70
2022-11-17T22:31:37.834Z,7.73
2022-11-17T22:34:05.983Z,7.67
2022-11-17T22:36:33.972Z,7.70
2022-11-17T22:39:02.028Z,7.68
2022-11-17T22:41:30.039Z,7.68
2022-11-17T22:43:58.819Z,7.66
2022-11-17T22:46:29.627Z,7.62
2022-11-17T22:48:57.819Z,7.65
2022-11-17T22:51:43.741Z,7.60
2022-11-17T22:54:11.795Z,7.60
2022-11-17T22:56:39.682Z,7.60
2022-11-17T22:59:08.224Z,7.59
2022-11-17T23:01:37.600Z,7.59
2022-11-17T23:04:05.821Z,7.57
2022-11-17T23:06:33.784Z,7.59
2022-11-17T23:09:01.887Z,7.59
2022-11-17T23:11:38.374Z,7.59
2022-11-17T23:14:07.977Z,7.56
2022-11-17T23:16:37.817Z,7.59
2022-11-17T23:19:06.689Z,7.56
2022-11-17T23:21:34.739Z,7.57
2022-11-17T23:24:03.560Z,7.60
2022-11-17T23:26:31.509Z,7.57
2022-11-17T23:28:59.457Z,7.57
2022-11-17T23:31:28.259Z,7.60
2022-11-17T23:33:57.882Z,7.56
2022-11-17T23:36:26.132Z,7.55
2022-11-17T23:38:56.689Z,7.56
2022-11-17T23:41:24.812Z,7.58
2022-11-17T23:43:54.520Z,7.57
2022-11-17T23:46:24.615Z,7.56
2022-11-17T23:48:53.349Z,7.58
2022-11-17T23:51:25.290Z,7.59
2022-11-17T23:53:53.981Z,7.58
2022-11-17T23:56:22.343Z,7.56
2022-11-17T23:58:50.837Z,7.57
